Logo AVAMET
Benvolgut visitant, si us plau, ingressa Recuperar contrasenya
AVAMET paisatges

Almoradí centre

Dades diàries. Acumulats / Últims 30 dies disponibles

Data Temperatura (°C) Humitat rel. (%) Pressió rel. (hPa) Vent (km/h) Precipitació
Mínima Mitjana Màxima Amplitud
tèrmica
Mínima Mitjana Màxima Mínima Mitjana Màxima Predom. Mitjana Ràfega
màxima
Total
(mm)
Índex-n
Mínima Mitjana Màxima Mínima Mitjana Màxima n
0 a 1
P0 max
mm 5'
Dades mensuals acumulades fins l'últim dia disponible
09/2020 17,9 19,7 22,3 24,5 24,7 29,3 31,6 13,7 34 71 92 1.013 1.020 1.026   4,5 33,8 3,6
Dades anuals acumulades fins l'últim dia disponible
2020 3,2 15,3 26,8 20,0 11,1 25,6 36,9 33,7 0 70 97 1.002 1.021 1.037   5,1 59,5 73,4
Últims 30 dies disponibles
19-09-2020 19,2     24,9     31,4 12,2 34 63 92 1.015 1.017 1.018 O 6,1 29,0 0,0
18-09-2020 20,3     22,4     24,7 4,4 65 82 91 1.016 1.017 1.020 SSE 3,7 32,2 3,6 0,60
17-09-2020 22,3     25,1     29,1 6,8 66 79 88 1.015 1.017 1.019 S 2,8 22,5 0,0
16-09-2020 20,6     25,4     31,0 10,4 46 74 92 1.018 1.019 1.021 SSO 3,8 24,1 0,0
15-09-2020 21,9     25,9     30,7 8,8 49 75 91 1.020 1.022 1.023 S 3,9 25,7 0,0
14-09-2020 19,8     24,8     29,5 9,7 63 76 86 1.022 1.023 1.025 S 4,2 25,7 0,0
13-09-2020 19,4     25,0     30,6 11,2 46 71 87 1.022 1.023 1.025 SSO 5,2 32,2 0,0
12-09-2020 18,9     25,3     31,6 12,7 35 65 85 1.017 1.019 1.022 SSE 4,3 27,4 0,0
11-09-2020 18,9     24,8     31,1 12,2 42 68 87 1.015 1.016 1.017 SO 6,2 32,2 0,0
10-09-2020 19,2     24,0     28,3 9,1 54 71 84 1.017 1.019 1.021 SO 5,2 29,0 0,0
09-09-2020 17,9     23,4     28,3 10,4 48 66 80 1.020 1.021 1.023 SO 5,0 30,6 0,0
08-09-2020 19,8     23,5     27,3 7,5 51 62 74 1.021 1.023 1.024 ESE 5,7 33,8 0,0
07-09-2020 19,9     24,3     29,2 9,3 56 71 87 1.016 1.018 1.022 S 4,8 30,6 0,0
06-09-2020 19,8     24,1     29,4 9,6 55 73 88 1.017 1.018 1.019 SO 3,6 25,7 0,0
05-09-2020 19,6     24,6     29,3 9,7 54 71 85 1.019 1.021 1.023 SSO 4,7 30,6 0,0
04-09-2020 19,1     24,8     29,6 10,5 55 69 86 1.023 1.024 1.026 S 4,6 29,0 0,0
03-09-2020 19,5     24,7     29,2 9,7 51 69 85 1.021 1.023 1.025 SSO 4,6 29,0 0,0
02-09-2020 20,2     24,8     29,0 8,8 50 67 81 1.015 1.017 1.021 SSO 4,6 29,0 0,0
01-09-2020 18,2     23,3     27,9 9,7 56 69 85 1.013 1.015 1.017 SSO 3,0 30,6 0,0
31-08-2020 17,4     23,4     27,8 10,4 50 64 84 1.018 1.019 1.021 SO 5,5 27,4 0,0
30-08-2020 17,5     22,6     27,2 9,7 43 64 90 1.012 1.014 1.017 SO 5,3 30,6 0,0
29-08-2020 20,2     25,5     31,9 11,7 26 68 89 1.002 1.004 1.010 SSE 4,7 45,1 14,8
28-08-2020 21,6     27,7     32,6 11,0 58 74 91 1.003 1.007 1.012 SSE 4,7 30,6 0,0
27-08-2020 21,7     27,9     32,9 11,2 50 71 91 1.014 1.017 1.019 SO 5,8 33,8 0,0
26-08-2020 22,2     28,4     34,8 12,6 41 71 96 1.018 1.019 1.020 S 4,2 25,7 0,0
25-08-2020 22,2     27,6     32,4 10,2 50 72 89 1.016 1.017 1.018 SSO 4,8 25,7 0,0
24-08-2020 24,7     27,8     31,2 6,5 59 74 88 1.016 1.018 1.019 SE 4,4 27,4 0,0
23-08-2020 25,2     28,2     31,4 6,2 63 77 89 1.018 1.020 1.021 SE 5,1 30,6 0,0
22-08-2020 23,1     28,2     32,4 9,3 52 69 85 1.017 1.019 1.021 S 6,3 37,0 0,0
21-08-2020 23,9     28,5     33,5 9,6 58 74 91 1.012 1.015 1.017 S 5,3 30,6 0,0
Últims 13 mesos disponibles
08/2020 17,4 22,4 25,2 27,6 27,2 32,8 36,9 19,5 37 66 77 1.004 1.015 1.020 SSO 5,3 45,1 29,6
02/2020 4,9 10,0 14,3 14,8 15,7 21,5 27,5 22,6 45 72 90 1.016 1.027 1.035 O 5,0 33,8 1,0
01/2020 3,2 7,0 13,9 11,2 11,1 17,0 22,9 19,7 60 76 89 1.015 1.027 1.034 ONO 4,9 53,1 38,4
12/2019 5,4 9,8 14,9 13,6 13,3 18,7 25,6 20,2 52 73 88 1.007 1.021 1.034 SO 5,2 48,3 33,2
11/2019 10,8 14,1 19,4 18,3 18,1 23,6 28,9 18,1 46 58 74 1.008 1.015 1.021 O 6,5 53,1 0,0
10/2019 10,7 15,9 21,9 20,4 16,1 26,2 34,9 24,2 45 71 90 1.010 1.018 1.024 OSO 4,3 33,8 20,0
09/2019 16,1 20,4 23,6 24,0 21,5 28,6 33,7 17,6 52 76 94 1.011 1.018 1.023 SSO 4,7 46,7 104,0
08/2019 19,4 22,5 25,2 26,9 29,2 32,3 39,4 20,0 52 71 81 1.011 1.017 1.021 SSO 4,8 41,8 51,6
07/2019 20,7 22,6 25,4 27,4 29,6 32,8 37,4 16,7 39 64 77 1.008 1.015 1.021 SSE 5,4 38,6 0,0
06/2019 13,8 18,3 22,5 23,7 23,8 28,9 35,5 21,7 39 62 75 1.010 1.016 1.023 S 5,6 41,8 0,4
05/2019 12,1 15,1 19,8 19,8 20,3 25,1 31,8 19,7 46 66 78 1.007 1.016 1.026 SE 5,5 43,5 1,4
04/2019 8,2 11,8 15,3 16,0 15,2 21,6 29,8 21,6 47 67 90 1.001 1.014 1.026 SO 5,6 61,2 100,2
03/2019 5,3 9,0 13,3 14,3 14,1 20,8 29,3 24,0 41 63 89 1.012 1.024 1.031 SO 4,8 41,8 21,0
Tots els anys disponibles
2019 4,6 14,9 25,4 19,5 13,3 25,0 39,4 34,8 34 67 94 998 1.018 1.034 SO 5,3 61,2
Temperatura (°C)
Humitat relativa (%)
Velocitat del vent i ràfega màxima (km/h)
Direcció del vent (°)
Pressió (hPa)
Precipitació (mm)
Nota sobre les dades: s'avisa a l'usuari de la provisionalitat i no oficialitat d'aquestes dades
Logo AVAMET blanc
Web allotjada a Sollutia
Llicència de Creative CommonsLa web d'AVAMET i els seus continguts estan subjectes a una llicència de
Reconeixement - No Comercial - Compartir igual
Últimes estacions: Castelló de la Plana - Grup Sant Agustí (Soci), Llíria - Urb. San Gerardo (Soci), Xàtiva - Ausiàs March (Soci), Gandia - Parpalló/Borrell (AVAMET), Olocau del Rei - La Magdalena (Electra/Soci), Ademuz - IES Ademuz (Soci), La Jana (Ajuntament Soci), Villahermosa del Río - la Cañada (Soci), Benassal (Ajuntament Soci), la Torre de les Maçanes - la Canaleta (Soci) - - -